createdAt,value
2023-05-10T00:00:18.618Z,25.17
2023-05-10T00:01:08.427Z,30.50
2023-05-10T00:01:58.687Z,27.01
2023-05-10T00:02:48.754Z,26.60
2023-05-10T00:03:38.849Z,25.89
2023-05-10T00:04:28.735Z,25.08
2023-05-10T00:05:18.800Z,27.85
2023-05-10T00:06:08.866Z,27.37
2023-05-10T00:06:58.998Z,29.85
2023-05-10T00:07:48.987Z,27.60
2023-05-10T00:08:39.013Z,27.35
2023-05-10T00:09:29.040Z,24.96
2023-05-10T00:10:19.328Z,28.80
2023-05-10T00:11:09.169Z,27.08
2023-05-10T00:11:59.220Z,29.69
2023-05-10T00:12:49.339Z,26.12
2023-05-10T00:13:39.337Z,27.76
2023-05-10T00:14:29.372Z,27.31
2023-05-10T00:15:19.455Z,27.99
2023-05-10T00:16:09.545Z,32.34
2023-05-10T00:16:59.678Z,28.12
2023-05-10T00:17:49.888Z,29.05
2023-05-10T00:18:39.886Z,30.53
2023-05-10T00:19:29.917Z,26.86
2023-05-10T00:20:20.039Z,25.00
2023-05-10T00:21:10.069Z,25.63
2023-05-10T00:22:00.137Z,32.48
2023-05-10T00:22:50.156Z,30.45
2023-05-10T00:23:40.237Z,27.83
2023-05-10T00:24:30.262Z,24.13
2023-05-10T00:25:20.328Z,30.60
2023-05-10T00:26:10.479Z,28.95
2023-05-10T00:27:00.655Z,27.88
2023-05-10T00:27:50.729Z,25.90
2023-05-10T00:28:40.829Z,26.18
2023-05-10T00:29:31.116Z,25.23
2023-05-10T00:30:21.192Z,23.77
2023-05-10T00:31:11.252Z,29.77
2023-05-10T00:32:01.635Z,30.48
2023-05-10T00:32:51.632Z,26.89
2023-05-10T00:33:41.711Z,25.00
2023-05-10T00:34:31.740Z,26.20
2023-05-10T00:35:21.809Z,25.00
2023-05-10T00:36:11.905Z,29.19
2023-05-10T00:37:01.973Z,28.63
2023-05-10T00:37:52.016Z,26.68
2023-05-10T00:38:42.068Z,29.66
2023-05-10T00:39:32.090Z,27.92
2023-05-10T00:40:22.158Z,31.58
2023-05-10T00:41:12.499Z,27.80
2023-05-10T00:42:02.527Z,31.50
2023-05-10T00:42:52.574Z,33.96
2023-05-10T00:43:42.657Z,33.38
2023-05-10T00:44:32.681Z,33.17
2023-05-10T00:45:22.747Z,35.82
2023-05-10T00:46:12.832Z,33.26
2023-05-10T00:47:02.881Z,35.93
2023-05-10T00:47:52.996Z,33.38
2023-05-10T00:48:43.028Z,36.90
2023-05-10T00:49:33.054Z,32.08
2023-05-10T00:50:23.266Z,35.75
2023-05-10T00:51:13.338Z,31.72
2023-05-10T00:52:03.391Z,35.83
2023-05-10T00:52:53.739Z,29.88
2023-05-10T00:53:43.808Z,33.84
2023-05-10T00:54:33.872Z,31.51
2023-05-10T00:55:24.150Z,33.53
2023-05-10T00:56:14.222Z,35.61
2023-05-10T00:57:04.276Z,34.31
2023-05-10T00:57:54.369Z,36.40
2023-05-10T00:58:44.425Z,35.82
2023-05-10T00:59:34.450Z,28.44
2023-05-10T01:00:24.515Z,33.54
2023-05-10T01:01:14.620Z,29.24
2023-05-10T01:02:04.664Z,25.47
2023-05-10T01:02:54.863Z,32.74
2023-05-10T01:03:44.791Z,27.85
2023-05-10T01:04:35.122Z,29.10
2023-05-10T01:05:25.216Z,30.43
2023-05-10T01:06:15.169Z,30.73
2023-05-10T01:07:05.238Z,26.51
2023-05-10T01:07:55.305Z,28.75
2023-05-10T01:08:45.384Z,32.36
2023-05-10T01:09:35.450Z,29.70
2023-05-10T01:10:25.513Z,32.80
2023-05-10T01:11:15.582Z,32.17
2023-05-10T01:12:05.697Z,30.22
2023-05-10T01:12:55.738Z,33.52
2023-05-10T01:13:45.968Z,28.35
2023-05-10T01:14:35.969Z,29.19
2023-05-10T01:15:26.047Z,34.63
2023-05-10T01:16:16.431Z,28.37
2023-05-10T01:17:06.409Z,32.03
2023-05-10T01:17:56.498Z,26.64
2023-05-10T01:18:46.556Z,33.01
2023-05-10T01:19:36.619Z,35.85
2023-05-10T01:20:26.704Z,33.03
2023-05-10T01:21:16.763Z,36.21
2023-05-10T01:22:06.842Z,34.95
2023-05-10T01:22:56.907Z,36.10
2023-05-10T01:23:46.984Z,30.62
2023-05-10T01:24:37.020Z,34.89
2023-05-10T01:25:27.254Z,34.04
2023-05-10T01:26:17.322Z,35.75
2023-05-10T01:27:07.379Z,33.60
2023-05-10T01:27:57.719Z,35.30
2023-05-10T01:28:47.795Z,36.09
2023-05-10T01:29:37.808Z,36.59
2023-05-10T01:30:28.190Z,31.76
2023-05-10T01:31:17.964Z,31.99
2023-05-10T01:32:08.087Z,34.01
2023-05-10T01:32:58.154Z,30.90
2023-05-10T01:33:48.231Z,29.59
2023-05-10T01:34:38.257Z,28.10
2023-05-10T01:35:28.326Z,34.05
2023-05-10T01:36:18.394Z,31.80
2023-05-10T01:37:08.460Z,29.40
2023-05-10T01:37:58.537Z,34.58
2023-05-10T01:38:48.608Z,30.78
2023-05-10T01:39:38.635Z,35.91
2023-05-10T01:40:28.701Z,30.96
2023-05-10T01:41:18.996Z,33.29
2023-05-10T01:42:09.054Z,35.12
2023-05-10T01:42:59.117Z,32.22
2023-05-10T01:43:49.472Z,27.54
2023-05-10T01:44:39.532Z,29.54
2023-05-10T01:45:29.550Z,27.65
2023-05-10T01:46:19.674Z,30.98
2023-05-10T01:47:09.678Z,28.81
2023-05-10T01:47:59.865Z,33.64
2023-05-10T01:48:49.829Z,35.14
2023-05-10T01:49:39.860Z,30.68
2023-05-10T01:50:29.913Z,31.15
2023-05-10T01:51:19.980Z,32.43
2023-05-10T01:52:10.063Z,31.39
2023-05-10T01:53:00.346Z,28.40
2023-05-10T01:53:50.447Z,26.32
2023-05-10T01:54:40.471Z,29.88
2023-05-10T01:55:30.793Z,29.31
2023-05-10T01:56:20.865Z,32.24
2023-05-10T01:57:10.901Z,30.63
2023-05-10T01:58:00.947Z,33.53
2023-05-10T01:58:51.013Z,30.16
2023-05-10T01:59:41.064Z,27.61
2023-05-10T02:00:31.121Z,31.42
2023-05-10T02:01:21.205Z,31.69
2023-05-10T02:02:11.238Z,26.37
2023-05-10T02:03:01.350Z,25.00
2023-05-10T02:03:51.401Z,32.49
2023-05-10T02:04:41.666Z,27.31
2023-05-10T02:05:31.735Z,27.53
2023-05-10T02:06:21.799Z,30.56
2023-05-10T02:07:12.130Z,33.17
2023-05-10T02:08:02.206Z,36.35
2023-05-10T02:08:52.285Z,33.49
2023-05-10T02:09:42.303Z,31.35
2023-05-10T02:10:32.338Z,31.42
2023-05-10T02:11:22.405Z,37.34
2023-05-10T02:12:12.431Z,33.32
2023-05-10T02:13:02.564Z,34.03
2023-05-10T02:13:52.557Z,38.23
2023-05-10T02:14:42.591Z,35.64
2023-05-10T02:15:32.678Z,34.76
2023-05-10T02:16:22.783Z,36.70
2023-05-10T02:17:12.765Z,34.19
2023-05-10T02:18:02.914Z,35.65
2023-05-10T02:18:52.913Z,34.82
2023-05-10T02:19:42.946Z,36.59
2023-05-10T02:20:33.007Z,37.45
2023-05-10T02:21:23.091Z,32.93
2023-05-10T02:22:13.157Z,34.50
2023-05-10T02:23:03.480Z,36.64
2023-05-10T02:23:53.566Z,35.16
2023-05-10T02:24:43.596Z,35.18
2023-05-10T02:25:33.919Z,33.28
2023-05-10T02:26:23.987Z,32.69
2023-05-10T02:27:14.053Z,36.55
2023-05-10T02:28:04.378Z,40.25
2023-05-10T02:28:54.449Z,40.24
2023-05-10T02:29:44.511Z,36.84
2023-05-10T02:30:34.831Z,35.57
2023-05-10T02:31:24.903Z,37.03
2023-05-10T02:32:14.942Z,35.28
2023-05-10T02:33:05.278Z,35.37
2023-05-10T02:33:55.293Z,38.15
2023-05-10T02:34:45.321Z,35.58
2023-05-10T02:35:35.394Z,35.26
2023-05-10T02:36:25.463Z,35.20
2023-05-10T02:37:15.522Z,35.25
2023-05-10T02:38:05.603Z,37.15
2023-05-10T02:38:55.643Z,31.76
2023-05-10T02:39:45.677Z,34.74
2023-05-10T02:40:35.753Z,35.65
2023-05-10T02:41:25.787Z,38.81
2023-05-10T02:42:16.013Z,34.68
2023-05-10T02:43:06.074Z,34.09
2023-05-10T02:43:56.164Z,34.12
2023-05-10T02:44:46.190Z,33.85
2023-05-10T02:45:36.287Z,36.30
2023-05-10T02:46:26.387Z,35.43
2023-05-10T02:47:16.388Z,37.14
2023-05-10T02:48:06.482Z,36.06
2023-05-10T02:48:56.529Z,43.09
2023-05-10T02:49:46.568Z,41.20
2023-05-10T02:50:36.597Z,38.42
2023-05-10T02:51:26.892Z,45.68
2023-05-10T02:52:16.962Z,41.14
2023-05-10T02:53:07.040Z,40.52
2023-05-10T02:53:57.336Z,42.14
2023-05-10T02:54:47.358Z,39.18
2023-05-10T02:55:37.429Z,44.35
2023-05-10T02:56:27.754Z,43.45
2023-05-10T02:57:17.816Z,42.23
2023-05-10T02:58:07.899Z,42.16
2023-05-10T02:58:58.190Z,41.30
2023-05-10T02:59:48.212Z,34.67
2023-05-10T03:00:38.296Z,38.57
2023-05-10T03:01:28.384Z,36.44
2023-05-10T03:02:18.378Z,39.36
2023-05-10T03:03:08.533Z,35.46
2023-05-10T03:03:58.508Z,42.00
2023-05-10T03:04:48.581Z,36.76
2023-05-10T03:05:38.613Z,38.60
2023-05-10T03:06:28.678Z,41.19
2023-05-10T03:07:18.740Z,40.52
2023-05-10T03:08:08.784Z,41.07
2023-05-10T03:08:58.866Z,39.95
2023-05-10T03:09:48.906Z,37.74
2023-05-10T03:10:38.967Z,39.09
2023-05-10T03:11:29.025Z,39.88
2023-05-10T03:12:19.082Z,38.95
2023-05-10T03:13:09.283Z,41.19
2023-05-10T03:13:59.229Z,42.07
2023-05-10T03:14:49.471Z,39.68
2023-05-10T03:15:39.525Z,44.79
2023-05-10T03:16:29.634Z,40.06
2023-05-10T03:17:19.612Z,44.38
2023-05-10T03:18:09.681Z,36.62
2023-05-10T03:18:59.777Z,41.18
2023-05-10T03:19:49.802Z,42.67
2023-05-10T03:20:39.870Z,41.20
2023-05-10T03:21:29.939Z,38.03
2023-05-10T03:22:19.998Z,41.24
2023-05-10T03:23:10.068Z,42.67
2023-05-10T03:24:00.322Z,39.20
2023-05-10T03:24:50.346Z,40.18
2023-05-10T03:25:40.446Z,41.04
2023-05-10T03:26:30.469Z,41.44
2023-05-10T03:27:20.536Z,40.69
2023-05-10T03:28:10.611Z,41.04
2023-05-10T03:29:00.728Z,39.96
2023-05-10T03:29:50.767Z,38.70
2023-05-10T03:30:40.760Z,41.46
2023-05-10T03:31:30.976Z,38.73
2023-05-10T03:32:20.921Z,38.71
2023-05-10T03:33:11.060Z,35.86
2023-05-10T03:34:01.014Z,38.63
2023-05-10T03:34:51.113Z,38.49
2023-05-10T03:35:41.138Z,40.64
2023-05-10T03:36:31.203Z,42.85
2023-05-10T03:37:21.388Z,38.37
2023-05-10T03:38:11.333Z,39.31
2023-05-10T03:39:01.533Z,41.92
2023-05-10T03:39:51.450Z,41.52
2023-05-10T03:40:41.527Z,40.77
2023-05-10T03:41:31.550Z,42.48
2023-05-10T03:42:21.685Z,41.00
2023-05-10T03:43:11.657Z,47.28
2023-05-10T03:44:01.761Z,40.46
2023-05-10T03:44:51.770Z,43.01
2023-05-10T03:45:41.877Z,42.85
2023-05-10T03:46:31.967Z,40.48
2023-05-10T03:47:22.028Z,42.31
2023-05-10T03:48:12.079Z,45.32
2023-05-10T03:49:02.206Z,42.63
2023-05-10T03:49:52.135Z,45.06
2023-05-10T03:50:42.216Z,47.03
2023-05-10T03:51:32.233Z,41.65
2023-05-10T03:52:22.364Z,45.27
2023-05-10T03:53:12.336Z,42.44
2023-05-10T03:54:02.548Z,47.91
2023-05-10T03:54:52.479Z,45.69
2023-05-10T03:55:42.578Z,46.86
2023-05-10T03:56:32.604Z,42.43
2023-05-10T03:57:22.707Z,48.46
2023-05-10T03:58:12.716Z,45.89
2023-05-10T03:59:02.888Z,47.38
2023-05-10T03:59:53.077Z,44.99
2023-05-10T04:00:43.214Z,47.55
2023-05-10T04:01:33.215Z,48.94
2023-05-10T04:02:23.955Z,45.23
2023-05-10T04:03:13.374Z,54.09
2023-05-10T04:04:03.494Z,51.63
2023-05-10T04:04:53.458Z,52.43
2023-05-10T04:05:43.549Z,49.36
2023-05-10T04:06:33.621Z,54.93
2023-05-10T04:07:23.702Z,54.37
2023-05-10T04:08:13.727Z,48.71
2023-05-10T04:09:03.891Z,51.93
2023-05-10T04:09:53.823Z,49.64
2023-05-10T04:10:43.999Z,49.23
2023-05-10T04:11:33.948Z,46.10
2023-05-10T04:12:24.043Z,47.32
2023-05-10T04:13:14.120Z,48.15
2023-05-10T04:14:04.234Z,50.00
2023-05-10T04:14:54.282Z,46.90
2023-05-10T04:15:44.443Z,44.94
2023-05-10T04:16:34.433Z,46.07
2023-05-10T04:17:24.507Z,50.51
2023-05-10T04:18:14.524Z,48.78
2023-05-10T04:19:04.686Z,48.30
2023-05-10T04:19:54.677Z,48.93
2023-05-10T04:20:44.788Z,47.47
2023-05-10T04:21:34.769Z,47.43
2023-05-10T04:22:24.967Z,48.77
2023-05-10T04:23:14.872Z,53.90
2023-05-10T04:24:05.032Z,51.23
2023-05-10T04:24:54.998Z,50.72
2023-05-10T04:25:46.432Z,47.58
2023-05-10T04:26:35.121Z,51.12
2023-05-10T04:27:25.285Z,49.76
2023-05-10T04:28:15.307Z,48.91
2023-05-10T04:29:05.462Z,48.92
2023-05-10T04:29:55.388Z,48.45
2023-05-10T04:30:45.539Z,46.79
2023-05-10T04:31:35.483Z,49.84
2023-05-10T04:32:25.667Z,45.16
2023-05-10T04:33:15.736Z,43.52
2023-05-10T04:34:05.930Z,50.73
2023-05-10T04:34:55.845Z,49.18
2023-05-10T04:35:46.048Z,54.23
2023-05-10T04:36:36.017Z,50.59
2023-05-10T04:37:26.064Z,51.29
2023-05-10T04:38:16.054Z,51.19
2023-05-10T04:39:06.146Z,47.88
2023-05-10T04:39:56.301Z,53.01
2023-05-10T04:40:46.464Z,55.22
2023-05-10T04:41:36.398Z,49.99
2023-05-10T04:42:26.469Z,53.22
2023-05-10T04:43:16.525Z,49.51
2023-05-10T04:44:06.562Z,53.23
2023-05-10T04:44:56.590Z,50.35
2023-05-10T04:45:46.678Z,52.41
2023-05-10T04:46:36.835Z,51.11
2023-05-10T04:47:26.789Z,52.82
2023-05-10T04:48:16.836Z,53.12
2023-05-10T04:49:07.185Z,52.95
2023-05-10T04:49:57.203Z,45.10
2023-05-10T04:50:47.293Z,52.05
2023-05-10T04:51:37.402Z,45.45
2023-05-10T04:52:27.381Z,51.39
2023-05-10T04:53:17.511Z,51.65
2023-05-10T04:54:07.498Z,54.12
2023-05-10T04:54:57.533Z,52.91
2023-05-10T04:55:47.608Z,51.84
2023-05-10T04:56:37.670Z,48.75
2023-05-10T04:57:27.740Z,46.42
2023-05-10T04:58:18.023Z,51.36
2023-05-10T04:59:08.125Z,51.28
2023-05-10T04:59:58.142Z,49.04
2023-05-10T05:00:48.215Z,54.53
2023-05-10T05:01:38.319Z,48.43
2023-05-10T05:02:28.430Z,53.40
2023-05-10T05:03:18.456Z,50.32
2023-05-10T05:04:08.474Z,49.26
2023-05-10T05:04:58.497Z,46.60
2023-05-10T05:05:48.565Z,52.30
2023-05-10T05:06:38.647Z,53.70
2023-05-10T05:07:29.003Z,53.64
2023-05-10T05:08:19.057Z,52.07
2023-05-10T05:09:09.130Z,47.32
2023-05-10T05:09:59.416Z,46.29
2023-05-10T05:10:49.486Z,50.29
2023-05-10T05:11:39.570Z,50.65
2023-05-10T05:12:29.881Z,55.69
2023-05-10T05:13:20.058Z,52.38
2023-05-10T05:14:10.032Z,55.79
2023-05-10T05:15:00.094Z,53.43
2023-05-10T05:15:50.182Z,55.68
2023-05-10T05:16:40.328Z,54.63
2023-05-10T05:17:30.230Z,51.57
2023-05-10T05:18:20.286Z,54.02
2023-05-10T05:19:10.383Z,52.62
2023-05-10T05:20:00.423Z,50.87
2023-05-10T05:20:50.481Z,52.88
2023-05-10T05:21:40.810Z,51.67
2023-05-10T05:22:30.860Z,54.20
2023-05-10T05:23:20.900Z,55.04
2023-05-10T05:24:10.975Z,53.87
2023-05-10T05:25:00.991Z,51.34
2023-05-10T05:25:51.064Z,53.48
2023-05-10T05:26:41.146Z,48.91
2023-05-10T05:27:31.184Z,53.44
2023-05-10T05:28:21.210Z,54.15
2023-05-10T05:29:11.313Z,53.78
2023-05-10T05:30:01.334Z,53.99
2023-05-10T05:30:51.410Z,56.78
2023-05-10T05:31:41.512Z,59.49
2023-05-10T05:32:31.497Z,52.44
2023-05-10T05:33:21.548Z,55.36
2023-05-10T05:34:11.657Z,53.27
2023-05-10T05:35:01.693Z,58.78
2023-05-10T05:35:51.803Z,56.09
2023-05-10T05:36:41.821Z,56.09
2023-05-10T05:37:31.895Z,52.65
2023-05-10T05:38:21.931Z,51.73
2023-05-10T05:39:12.088Z,55.00
2023-05-10T05:40:02.049Z,56.32
2023-05-10T05:40:52.112Z,56.12
2023-05-10T05:41:42.176Z,51.08
2023-05-10T05:42:32.252Z,56.57
2023-05-10T05:43:22.301Z,53.27
2023-05-10T05:44:12.399Z,52.61
2023-05-10T05:45:02.410Z,55.77
2023-05-10T05:45:52.552Z,53.69
2023-05-10T05:46:42.559Z,54.32
2023-05-10T05:47:32.627Z,55.50
2023-05-10T05:48:22.641Z,51.17
2023-05-10T05:49:12.721Z,51.86
2023-05-10T05:50:02.758Z,48.20
2023-05-10T05:50:52.836Z,48.84
2023-05-10T05:51:42.864Z,51.48
2023-05-10T05:52:32.911Z,51.45
2023-05-10T05:53:22.959Z,50.58
2023-05-10T05:54:13.298Z,48.97
2023-05-10T05:55:03.355Z,50.95
2023-05-10T05:55:53.409Z,51.96
2023-05-10T05:56:43.434Z,41.94
2023-05-10T05:57:33.506Z,49.12
2023-05-10T05:58:23.682Z,46.37
2023-05-10T05:59:13.671Z,49.98
2023-05-10T06:00:03.692Z,47.94
2023-05-10T06:00:53.759Z,45.29
2023-05-10T06:01:43.805Z,52.94
2023-05-10T06:02:33.997Z,48.98
2023-05-10T06:03:23.962Z,49.58
2023-05-10T06:04:14.040Z,46.71
2023-05-10T06:05:04.011Z,48.56
2023-05-10T06:05:54.084Z,45.87
2023-05-10T06:06:44.149Z,46.75
2023-05-10T06:07:34.269Z,49.57
2023-05-10T06:08:24.334Z,48.54
2023-05-10T06:09:14.427Z,52.49
2023-05-10T06:10:04.453Z,46.18
2023-05-10T06:10:54.545Z,44.74
2023-05-10T06:11:44.593Z,47.77
2023-05-10T06:12:34.669Z,45.59
2023-05-10T06:13:24.750Z,45.79
2023-05-10T06:14:14.807Z,45.00
2023-05-10T06:15:04.818Z,45.75
2023-05-10T06:15:54.884Z,45.86
2023-05-10T06:16:45.149Z,42.07
2023-05-10T06:17:35.198Z,40.11
2023-05-10T06:18:25.196Z,38.06
2023-05-10T06:19:15.289Z,40.18
2023-05-10T06:20:05.321Z,40.71
2023-05-10T06:20:55.395Z,41.16
2023-05-10T06:21:45.452Z,45.75
2023-05-10T06:22:35.523Z,42.86
2023-05-10T06:23:25.588Z,45.05
2023-05-10T06:24:15.703Z,47.48
2023-05-10T06:25:05.717Z,46.91
2023-05-10T06:25:55.796Z,48.83
2023-05-10T06:26:45.857Z,44.44
2023-05-10T06:27:35.857Z,43.88
2023-05-10T06:28:25.927Z,43.54
2023-05-10T06:29:16.009Z,45.08
2023-05-10T06:30:15.099Z,44.76
2023-05-10T06:30:57.106Z,44.80
2023-05-10T06:31:46.183Z,38.68
2023-05-10T06:32:36.278Z,45.11
2023-05-10T06:33:26.252Z,44.87
2023-05-10T06:34:16.343Z,44.54
2023-05-10T06:35:06.365Z,43.26
2023-05-10T06:35:56.441Z,35.36
2023-05-10T06:36:46.725Z,44.51
2023-05-10T06:37:36.786Z,35.11
2023-05-10T06:38:26.852Z,41.63
2023-05-10T06:39:16.955Z,41.08
2023-05-10T06:40:06.983Z,38.84
2023-05-10T06:40:57.045Z,39.45
2023-05-10T06:41:47.109Z,34.17
2023-05-10T06:42:37.305Z,41.29
2023-05-10T06:43:27.220Z,40.75
2023-05-10T06:44:17.305Z,34.58
2023-05-10T06:45:07.332Z,41.34
2023-05-10T06:45:57.448Z,35.33
2023-05-10T06:46:47.554Z,44.11
2023-05-10T06:47:39.250Z,39.99
2023-05-10T06:48:27.588Z,43.21
2023-05-10T06:49:17.665Z,40.77
2023-05-10T06:50:07.733Z,35.70
2023-05-10T06:50:57.815Z,39.32
2023-05-10T06:51:47.895Z,32.56
2023-05-10T06:52:37.926Z,36.44
2023-05-10T06:53:27.992Z,38.06
2023-05-10T06:54:18.096Z,36.59
2023-05-10T06:55:08.105Z,30.59
2023-05-10T06:55:58.180Z,34.72
2023-05-10T06:56:48.215Z,30.74
2023-05-10T06:57:38.285Z,33.36
2023-05-10T06:58:28.440Z,34.78
2023-05-10T06:59:18.773Z,37.20
2023-05-10T07:00:08.798Z,34.06
2023-05-10T07:00:58.828Z,38.34
2023-05-10T07:01:48.872Z,37.37
2023-05-10T07:02:38.936Z,34.76
2023-05-10T07:03:28.917Z,33.35
2023-05-10T07:04:19.060Z,32.91
2023-05-10T07:05:09.045Z,34.56
2023-05-10T07:05:59.155Z,34.43
2023-05-10T07:06:49.220Z,32.91
2023-05-10T07:07:39.296Z,33.15
2023-05-10T07:08:29.629Z,26.30
2023-05-10T07:09:19.702Z,26.95
2023-05-10T07:10:09.716Z,35.17
2023-05-10T07:10:59.796Z,32.18
2023-05-10T07:11:49.868Z,32.73
2023-05-10T07:12:40.013Z,33.51
2023-05-10T07:13:30.087Z,34.09
2023-05-10T07:14:20.071Z,36.75
2023-05-10T07:15:10.093Z,29.42
2023-05-10T07:16:00.272Z,34.22
2023-05-10T07:16:50.224Z,32.54
2023-05-10T07:17:41.802Z,30.78
2023-05-10T07:18:30.358Z,26.60
2023-05-10T07:19:20.399Z,30.69
2023-05-10T07:20:10.424Z,31.14
2023-05-10T07:21:00.516Z,28.43
2023-05-10T07:21:50.518Z,30.77
2023-05-10T07:22:40.590Z,32.56
2023-05-10T07:23:30.678Z,38.14
2023-05-10T07:24:20.792Z,36.88
2023-05-10T07:25:10.836Z,43.84
2023-05-10T07:26:00.896Z,42.69
2023-05-10T07:26:51.221Z,42.82
2023-05-10T07:27:41.294Z,45.87
2023-05-10T07:28:31.334Z,43.38
2023-05-10T07:29:21.452Z,44.11
2023-05-10T07:30:11.464Z,45.25
2023-05-10T07:31:01.592Z,46.49
2023-05-10T07:31:51.591Z,41.69
2023-05-10T07:32:41.622Z,40.82
2023-05-10T07:33:31.701Z,46.64
2023-05-10T07:34:21.775Z,43.42
2023-05-10T07:35:11.799Z,46.63
2023-05-10T07:36:02.132Z,44.37
2023-05-10T07:36:52.192Z,46.06
2023-05-10T07:37:42.261Z,44.95
2023-05-10T07:38:32.580Z,48.41
2023-05-10T07:39:27.734Z,41.46
2023-05-10T07:40:13.701Z,41.58
2023-05-10T07:41:02.741Z,41.62
2023-05-10T07:41:52.805Z,42.20
2023-05-10T07:42:42.875Z,42.64
2023-05-10T07:43:32.901Z,41.77
2023-05-10T07:44:22.986Z,44.35
2023-05-10T07:45:13.046Z,40.49
2023-05-10T07:46:03.290Z,51.32
2023-05-10T07:46:53.325Z,45.75
2023-05-10T07:47:43.416Z,50.63
2023-05-10T07:48:33.456Z,46.44
2023-05-10T07:49:23.561Z,47.61
2023-05-10T07:50:13.569Z,42.67
2023-05-10T07:51:03.664Z,48.52
2023-05-10T07:51:53.688Z,39.64
2023-05-10T07:52:43.758Z,45.61
2023-05-10T07:53:33.811Z,45.44
2023-05-10T07:54:23.913Z,46.56
2023-05-10T07:55:15.155Z,52.34
2023-05-10T07:56:04.254Z,50.17
2023-05-10T07:56:54.348Z,52.56
2023-05-10T07:57:44.653Z,52.63
2023-05-10T07:58:34.716Z,55.36
2023-05-10T07:59:24.803Z,55.17
2023-05-10T08:00:14.894Z,52.87
2023-05-10T08:01:04.918Z,53.36
2023-05-10T08:01:54.996Z,57.61
2023-05-10T08:02:45.182Z,57.75
2023-05-10T08:03:35.136Z,60.60
2023-05-10T08:04:25.274Z,60.25
2023-05-10T08:05:15.610Z,60.41
2023-05-10T08:06:05.269Z,58.28
2023-05-10T08:06:55.627Z,62.48
2023-05-10T08:07:45.640Z,62.29
2023-05-10T08:08:35.712Z,62.95
2023-05-10T08:09:26.058Z,66.04
2023-05-10T08:10:16.077Z,70.59
2023-05-10T08:11:06.156Z,62.36
2023-05-10T08:11:56.223Z,67.33
2023-05-10T08:12:46.297Z,72.47
2023-05-10T08:13:36.363Z,70.05
2023-05-10T08:14:26.371Z,71.28
2023-05-10T08:15:16.740Z,69.16
2023-05-10T08:16:06.478Z,70.14
2023-05-10T08:16:56.501Z,69.33
2023-05-10T08:17:46.614Z,73.98
2023-05-10T08:18:36.657Z,67.16
2023-05-10T08:19:26.692Z,68.79
2023-05-10T08:20:16.715Z,67.99
2023-05-10T08:21:06.795Z,69.19
2023-05-10T08:21:56.821Z,71.45
2023-05-10T08:22:46.996Z,72.85
2023-05-10T08:23:36.963Z,76.92
2023-05-10T08:24:27.059Z,75.47
2023-05-10T08:25:17.275Z,76.74
2023-05-10T08:26:07.133Z,82.08
2023-05-10T08:26:57.166Z,79.12
2023-05-10T08:27:47.253Z,82.64
2023-05-10T08:28:37.314Z,85.15
2023-05-10T08:29:30.424Z,79.90
2023-05-10T08:30:17.684Z,85.38
2023-05-10T08:31:07.781Z,87.08
2023-05-10T08:31:57.810Z,81.61
2023-05-10T08:32:47.965Z,83.13
2023-05-10T08:33:37.949Z,82.95
2023-05-10T08:34:28.037Z,83.35
2023-05-10T08:35:18.320Z,74.32
2023-05-10T08:36:08.196Z,75.68
2023-05-10T08:36:58.234Z,74.14
2023-05-10T08:37:48.300Z,70.38
2023-05-10T08:38:38.664Z,75.93
2023-05-10T08:39:30.625Z,82.39
2023-05-10T08:40:18.712Z,82.41
2023-05-10T08:41:08.801Z,82.77
2023-05-10T08:41:58.850Z,83.29
2023-05-10T08:42:48.922Z,84.46
2023-05-10T08:43:39.015Z,87.13
2023-05-10T08:44:29.287Z,86.80
2023-05-10T08:45:19.546Z,86.08
2023-05-10T08:46:09.470Z,86.61
2023-05-10T08:46:59.601Z,90.53
2023-05-10T08:47:49.520Z,92.37
2023-05-10T08:48:39.556Z,92.99
2023-05-10T08:49:29.601Z,89.73
2023-05-10T08:50:19.678Z,92.30
2023-05-10T08:51:09.834Z,85.82
2023-05-10T08:51:59.869Z,86.14
2023-05-10T08:52:49.975Z,87.18
2023-05-10T08:53:39.985Z,82.53
2023-05-10T08:54:30.097Z,84.87
2023-05-10T08:55:20.158Z,76.24
2023-05-10T08:56:10.172Z,79.97
2023-05-10T08:57:00.245Z,78.67
2023-05-10T08:57:50.323Z,70.13
2023-05-10T08:58:40.346Z,71.38
2023-05-10T08:59:30.451Z,71.65
2023-05-10T09:00:20.837Z,72.56
2023-05-10T09:01:10.817Z,71.12
2023-05-10T09:02:00.841Z,78.81
2023-05-10T09:02:50.996Z,81.94
2023-05-10T09:03:41.057Z,80.41
2023-05-10T09:04:31.109Z,83.29
2023-05-10T09:05:21.246Z,78.54
2023-05-10T09:06:11.154Z,83.96
2023-05-10T09:07:01.227Z,83.41
2023-05-10T09:07:51.262Z,81.49
2023-05-10T09:08:41.334Z,84.59
2023-05-10T09:09:31.447Z,85.66
2023-05-10T09:10:21.469Z,87.25
2023-05-10T09:11:11.541Z,85.21
2023-05-10T09:12:01.605Z,90.55
2023-05-10T09:12:51.674Z,91.55
2023-05-10T09:13:41.736Z,90.65
2023-05-10T09:14:31.825Z,87.38
2023-05-10T09:15:21.850Z,92.72
2023-05-10T09:16:21.348Z,95.20
2023-05-10T09:17:03.280Z,93.46
2023-05-10T09:17:52.349Z,93.10
2023-05-10T09:18:42.371Z,87.50
2023-05-10T09:19:32.432Z,83.88
2023-05-10T09:20:22.450Z,76.80
2023-05-10T09:21:13.059Z,77.36
2023-05-10T09:22:02.569Z,75.64
2023-05-10T09:22:52.645Z,72.26
2023-05-10T09:23:42.712Z,65.59
2023-05-10T09:24:32.814Z,65.00
2023-05-10T09:25:22.861Z,62.91
2023-05-10T09:26:12.938Z,69.54
2023-05-10T09:27:02.972Z,67.34
2023-05-10T09:27:53.029Z,68.50
2023-05-10T09:28:43.082Z,67.22
2023-05-10T09:29:33.177Z,63.65
2023-05-10T09:30:23.188Z,66.74
2023-05-10T09:31:13.289Z,61.26
2023-05-10T09:32:03.295Z,69.11
2023-05-10T09:32:53.406Z,66.92
2023-05-10T09:33:43.718Z,72.89
2023-05-10T09:34:33.786Z,71.01
2023-05-10T09:35:24.619Z,74.89
2023-05-10T09:36:13.877Z,77.11
2023-05-10T09:37:03.919Z,69.37
2023-05-10T09:37:53.976Z,75.07
2023-05-10T09:38:44.016Z,75.50
2023-05-10T09:39:34.102Z,73.76
2023-05-10T09:40:24.176Z,78.63
2023-05-10T09:41:14.245Z,77.28
2023-05-10T09:42:04.290Z,76.69
2023-05-10T09:42:54.368Z,76.16
2023-05-10T09:43:44.395Z,76.68
2023-05-10T09:44:34.500Z,79.75
2023-05-10T09:45:24.515Z,76.37
2023-05-10T09:46:14.611Z,77.84
2023-05-10T09:47:04.685Z,76.93
2023-05-10T09:47:54.746Z,71.97
2023-05-10T09:48:44.784Z,74.67
2023-05-10T09:49:34.890Z,70.30
2023-05-10T09:50:24.893Z,69.88
2023-05-10T09:51:14.974Z,68.21
2023-05-10T09:52:05.035Z,68.05
2023-05-10T09:52:55.126Z,64.40
2023-05-10T09:53:45.180Z,66.05
2023-05-10T09:54:35.282Z,64.01
2023-05-10T09:55:25.300Z,64.57
2023-05-10T09:56:15.378Z,60.39
2023-05-10T09:57:05.450Z,66.69
2023-05-10T09:57:55.518Z,64.38
2023-05-10T09:58:45.589Z,63.67
2023-05-10T09:59:35.694Z,68.05
2023-05-10T10:00:25.708Z,67.08
2023-05-10T10:01:15.837Z,68.85
2023-05-10T10:02:05.974Z,68.53
2023-05-10T10:02:56.208Z,68.93
2023-05-10T10:03:46.203Z,68.81
2023-05-10T10:04:36.320Z,72.12
2023-05-10T10:05:26.346Z,68.04
2023-05-10T10:06:29.029Z,71.93
2023-05-10T10:07:07.464Z,69.81
2023-05-10T10:07:56.503Z,70.99
2023-05-10T10:08:46.572Z,68.78
2023-05-10T10:09:36.671Z,72.85
2023-05-10T10:10:26.686Z,71.30
2023-05-10T10:11:16.749Z,73.32
2023-05-10T10:12:06.788Z,73.97
2023-05-10T10:12:57.013Z,72.25
2023-05-10T10:13:47.055Z,74.52
2023-05-10T10:14:37.159Z,64.84
2023-05-10T10:15:27.186Z,64.27
2023-05-10T10:16:17.335Z,63.33
2023-05-10T10:17:08.960Z,56.43
2023-05-10T10:17:57.383Z,55.53
2023-05-10T10:18:47.486Z,54.62
2023-05-10T10:19:38.045Z,52.16
2023-05-10T10:20:27.571Z,55.09
2023-05-10T10:21:17.637Z,55.92
2023-05-10T10:22:07.940Z,52.29
2023-05-10T10:22:58.016Z,54.97
2023-05-10T10:23:48.102Z,50.16
2023-05-10T10:24:38.405Z,49.63
2023-05-10T10:25:28.419Z,48.39
2023-05-10T10:26:18.490Z,41.85
2023-05-10T10:27:08.532Z,45.68
2023-05-10T10:27:58.589Z,37.28
2023-05-10T10:28:48.613Z,41.33
2023-05-10T10:29:38.697Z,39.62
2023-05-10T10:30:28.729Z,35.85
2023-05-10T10:31:18.886Z,33.78
2023-05-10T10:32:08.925Z,36.49
2023-05-10T10:32:59.024Z,31.22
2023-05-10T10:33:49.359Z,35.05
2023-05-10T10:34:39.423Z,30.17
2023-05-10T10:35:29.452Z,30.21
2023-05-10T10:36:19.520Z,30.68
2023-05-10T10:37:09.558Z,25.05
2023-05-10T10:37:59.602Z,26.27
2023-05-10T10:38:49.669Z,27.72
2023-05-10T10:39:39.783Z,27.81
2023-05-10T10:40:31.315Z,26.91
2023-05-10T10:41:19.881Z,32.90
2023-05-10T10:42:09.967Z,31.83
2023-05-10T10:42:59.993Z,31.19
2023-05-10T10:43:50.059Z,30.60
2023-05-10T10:44:40.302Z,26.67